Accueil
METAR-TAF:

METAR-TAF

Aéroports :

Aéroport de Fukuoka

Fukuoka, Japon

latitude: 33-35N, longitude: 130-27E, altitude: 9 m

Observation

Le bulletin a été fait il y a 13 minutes, à 21:00 UTC
Vent 4 kt de sud-est, variant entre est et sud
Température 3°C
Humidité 70%
Pression 1026 hPa
Visibilité 10 km ou plus
pas de nuages en-dessous de 1500 mètres et pas de cumulonimbus.

METAR: RJFF 272100Z 14004KT 100V170 CAVOK 03/M02 Q1026 NOSIG RMK A3030

Heure: 06:13 (21:13 UTC)

Prévision

Le bulletin a été fait il y a 4 heures et 8 minutes, à 17:05 UTC
Prévision valable du 27 à 18 UTC au 29 à 00 UTC
Vent 8 kt de sud-est
Visibilité 10 km ou plus
Quelques nuages à une hauteur de 3000 ft

TAF: RJFF 271705Z 2718/2900 13008KT 9999 FEW030

Observations et prévisions météorologiques de plus de 4000 aéroports (messages METAR et TAF).

Les stations disponibles sont représentées par des disques jaunes et rouges sur la carte.

Passer la souris dessus pour voir le nom de la station.

Cliquer dessus pour voir les observations et prévisions météorologiques.

Pour changer de carte: cliquez sur les boutons verts avec une croix noire pour zoomer, sur le bouton vert avec un tiret pour effectuer un zoom arrière, ou sur les flèches vertes pour les cartes adjacentes.


METAR-TAF: